Time;durP1;ratioP1;P1;durP2;ratioP2;P2;SDS_P1;SDS_P2;PMS_P1;PMS_P2;Temp;Humidity;BMP_temperature;BMP_pressure;BME280_temperature;BME280_humidity;BME280_pressure;Samples;Min_cycle;Max_cycle;Signal;HPM_P1;HPM_P2
2023/06/26 00:01:08;;;;;;;4.80;3.60;;;20.60;57.00;;;;;;5094531;28;20744;-74
2023/06/26 00:03:34;;;;;;;5.60;3.60;;;20.60;57.20;;;;;;5100556;28;20740;-74
2023/06/26 00:06:01;;;;;;;8.73;4.70;;;20.70;56.70;;;;;;5102415;28;20662;-74
2023/06/26 00:08:29;;;;;;;3.77;3.47;;;20.60;56.60;;;;;;5095883;28;20628;-74
2023/06/26 00:10:56;;;;;;;4.77;4.33;;;20.50;56.50;;;;;;5101638;28;20661;-73
2023/06/26 00:13:24;;;;;;;6.20;4.60;;;20.60;57.00;;;;;;5100051;27;20633;-74
2023/06/26 00:15:51;;;;;;;5.03;3.90;;;20.60;57.10;;;;;;5100949;28;20679;-74
2023/06/26 00:18:18;;;;;;;5.23;4.20;;;20.60;56.40;;;;;;5102900;28;20659;-74
2023/06/26 00:20:45;;;;;;;6.03;4.93;;;20.60;56.80;;;;;;5096091;28;21255;-74
2023/06/26 00:23:16;;;;;;;3.77;3.47;;;20.50;57.50;;;;;;5102254;28;20666;-74
2023/06/26 00:25:44;;;;;;;6.40;5.00;;;20.50;57.40;;;;;;5096263;28;20740;-74
2023/06/26 00:28:11;;;;;;;5.47;3.80;;;20.40;57.30;;;;;;5097932;28;20625;-74
2023/06/26 00:30:38;;;;;;;5.90;3.73;;;20.40;57.60;;;;;;5103974;28;20694;-73
2023/06/26 00:33:05;;;;;;;5.53;4.60;;;20.50;57.60;;;;;;5100445;28;20688;-73
2023/06/26 00:35:31;;;;;;;5.17;3.73;;;20.50;57.60;;;;;;5099201;28;20656;-73
2023/06/26 00:37:58;;;;;;;6.80;5.50;;;20.40;57.70;;;;;;5094858;28;21208;-74
2023/06/26 00:40:26;;;;;;;5.17;3.50;;;20.40;57.20;;;;;;5097817;28;20663;-74
2023/06/26 00:42:54;;;;;;;5.80;4.10;;;20.40;57.60;;;;;;5094966;28;20691;-74
2023/06/26 00:45:21;;;;;;;4.57;4.17;;;20.50;58.10;;;;;;5099807;28;20625;-74
2023/06/26 00:47:48;;;;;;;5.50;4.60;;;20.40;58.20;;;;;;5097315;28;20616;-73
2023/06/26 00:50:15;;;;;;;3.80;3.40;;;20.40;58.80;;;;;;5098158;28;20623;-74
2023/06/26 00:52:42;;;;;;;3.87;3.43;;;20.40;57.80;;;;;;5101308;28;20628;-73
2023/06/26 00:55:10;;;;;;;6.10;3.67;;;20.40;57.80;;;;;;5101472;28;21199;-74
2023/06/26 00:57:37;;;;;;;4.20;3.80;;;20.50;57.40;;;;;;5101342;28;20678;-73
2023/06/26 01:00:07;;;;;;;9.27;3.70;;;20.50;57.60;;;;;;5100992;28;20624;-73
2023/06/26 01:02:35;;;;;;;6.73;4.37;;;20.50;57.60;;;;;;5099278;28;20628;-74
2023/06/26 01:05:06;;;;;;;4.40;3.57;;;20.50;57.20;;;;;;5096723;28;20651;-74
2023/06/26 01:07:36;;;;;;;7.37;4.50;;;20.50;57.20;;;;;;5098335;28;21216;-74
2023/06/26 01:10:03;;;;;;;4.20;3.80;;;20.50;57.20;;;;;;5100973;28;20627;-73
2023/06/26 01:12:31;;;;;;;4.10;3.47;;;20.50;57.50;;;;;;5101615;28;20673;-74
2023/06/26 01:14:59;;;;;;;4.70;4.17;;;20.40;57.10;;;;;;5089429;28;21045;-74
2023/06/26 01:17:31;;;;;;;4.90;4.40;;;20.40;57.20;;;;;;5097898;28;21270;-73
2023/06/26 01:19:59;;;;;;;5.33;4.13;;;20.50;57.40;;;;;;5100248;28;20632;-73
2023/06/26 01:22:45;;;;;;;4.37;3.97;;;20.30;57.50;;;;;;5098518;28;20660;-74
2023/06/26 01:25:22;;;;;;;7.00;4.57;;;20.30;57.70;;;;;;5090491;28;20621;-73
2023/06/26 01:27:53;;;;;;;5.07;4.17;;;20.40;57.60;;;;;;5098115;28;20628;-74
2023/06/26 01:30:22;;;;;;;4.47;3.90;;;20.30;57.50;;;;;;5100450;28;20634;-74
2023/06/26 01:32:50;;;;;;;4.10;3.70;;;20.40;57.40;;;;;;5100318;28;20629;-74
2023/06/26 01:35:17;;;;;;;4.57;4.17;;;20.40;57.50;;;;;;5090479;28;20612;-73
2023/06/26 01:37:44;;;;;;;4.67;4.20;;;20.40;57.60;;;;;;5096179;28;20656;-73
2023/06/26 01:40:12;;;;;;;3.93;3.47;;;20.30;58.60;;;;;;5098889;28;20648;-73
2023/06/26 01:42:40;;;;;;;4.10;3.80;;;20.30;57.80;;;;;;5100646;28;20776;-73
2023/06/26 01:45:17;;;;;;;4.63;4.10;;;20.30;58.40;;;;;;5099323;27;20628;-73
2023/06/26 01:47:51;;;;;;;5.23;4.73;;;20.20;58.30;;;;;;5101590;28;20698;-72
2023/06/26 01:50:24;;;;;;;2.97;2.77;;;20.20;58.80;;;;;;5098208;28;20633;-73
2023/06/26 01:53:02;;;;;;;4.63;4.23;;;20.10;59.30;;;;;;5100547;28;20631;-73
2023/06/26 01:55:35;;;;;;;4.97;3.53;;;19.90;60.10;;;;;;5097832;28;20682;-73
2023/06/26 01:58:03;;;;;;;5.20;4.70;;;19.80;60.30;;;;;;5096293;28;21045;-73
2023/06/26 02:00:33;;;;;;;4.23;3.87;;;19.70;60.50;;;;;;5098157;28;20658;-73
2023/06/26 02:03:03;;;;;;;6.07;4.47;;;19.70;61.20;;;;;;5097776;28;20640;-73
2023/06/26 02:05:30;;;;;;;4.37;3.97;;;19.60;61.10;;;;;;5097815;28;21061;-73
2023/06/26 02:07:57;;;;;;;5.43;3.83;;;19.50;61.50;;;;;;5100007;28;20644;-73
2023/06/26 02:10:24;;;;;;;4.73;3.67;;;19.40;61.70;;;;;;5099656;28;20644;-73
2023/06/26 02:12:51;;;;;;;4.97;4.50;;;19.40;61.10;;;;;;5095917;28;21036;-73
2023/06/26 02:15:18;;;;;;;4.50;3.50;;;19.40;61.80;;;;;;5095882;28;20636;-73
2023/06/26 02:17:48;;;;;;;5.43;4.33;;;19.30;62.20;;;;;;5097381;28;20613;-73
2023/06/26 02:20:15;;;;;;;4.60;4.00;;;19.30;62.50;;;;;;5098882;28;20750;-73
2023/06/26 02:22:42;;;;;;;4.83;4.33;;;19.20;61.90;;;;;;5095430;28;20628;-73
2023/06/26 02:25:09;;;;;;;4.33;3.93;;;19.20;63.30;;;;;;5099882;28;20613;-72
2023/06/26 02:27:37;;;;;;;4.27;3.87;;;19.10;63.20;;;;;;5097671;28;20775;-73
2023/06/26 02:30:05;;;;;;;6.73;4.07;;;19.00;63.40;;;;;;5097580;28;20712;-73
2023/06/26 02:32:33;;;;;;;7.97;4.77;;;19.00;63.40;;;;;;5098044;28;20620;-73
2023/06/26 02:35:04;;;;;;;6.10;4.10;;;19.00;62.70;;;;;;5095676;28;20643;-73
2023/06/26 02:37:32;;;;;;;4.70;3.57;;;18.90;63.70;;;;;;5096299;28;20637;-73
2023/06/26 02:39:59;;;;;;;4.10;3.67;;;18.90;63.80;;;;;;5095907;28;20626;-73
2023/06/26 02:42:26;;;;;;;6.50;4.37;;;18.80;63.60;;;;;;5097566;28;20655;-73
2023/06/26 02:44:53;;;;;;;4.10;3.70;;;18.70;63.90;;;;;;5096373;28;20617;-74
2023/06/26 02:47:20;;;;;;;4.03;3.03;;;18.70;64.10;;;;;;5097726;28;20649;-73
2023/06/26 02:49:47;;;;;;;4.17;3.77;;;18.70;64.40;;;;;;5096470;28;20639;-73
2023/06/26 02:52:15;;;;;;;4.17;3.70;;;18.70;65.30;;;;;;5099230;28;20743;-73
2023/06/26 02:54:43;;;;;;;5.33;3.37;;;18.70;66.20;;;;;;5095970;28;20720;-74
2023/06/26 02:57:14;;;;;;;4.60;3.77;;;18.60;66.10;;;;;;5096250;28;20653;-74
2023/06/26 02:59:42;;;;;;;7.07;4.67;;;18.50;66.60;;;;;;5094395;28;21005;-74
2023/06/26 03:02:10;;;;;;;4.90;4.40;;;18.50;66.60;;;;;;5095231;28;20669;-73
2023/06/26 03:04:38;;;;;;;4.33;3.60;;;18.50;66.60;;;;;;5095702;28;21523;-74
2023/06/26 03:07:05;;;;;;;3.20;2.90;;;18.50;66.30;;;;;;5098376;28;20666;-74
2023/06/26 03:09:34;;;;;;;5.30;3.70;;;18.40;66.10;;;;;;5098088;28;21251;-73
2023/06/26 03:12:01;;;;;;;3.80;3.00;;;18.40;66.30;;;;;;5096112;28;21074;-73
2023/06/26 03:14:28;;;;;;;5.37;4.87;;;18.40;66.80;;;;;;5095367;28;20633;-74
2023/06/26 03:16:57;;;;;;;3.90;3.60;;;18.40;66.50;;;;;;5098749;28;20651;-73
2023/06/26 03:19:24;;;;;;;4.90;4.07;;;18.30;67.30;;;;;;5094822;28;20631;-73
2023/06/26 03:21:51;;;;;;;3.33;2.97;;;18.30;67.90;;;;;;5099902;28;20640;-74
2023/06/26 03:24:18;;;;;;;5.57;3.13;;;18.30;67.30;;;;;;5095577;28;20632;-73
2023/06/26 03:26:47;;;;;;;3.90;3.40;;;18.30;68.00;;;;;;5100478;28;20685;-73
2023/06/26 03:29:14;;;;;;;4.10;3.77;;;18.30;68.30;;;;;;5092605;28;21033;-73
2023/06/26 03:31:41;;;;;;;3.37;3.00;;;18.30;67.60;;;;;;5095392;28;20645;-73
2023/06/26 03:34:08;;;;;;;4.70;4.07;;;18.30;68.30;;;;;;5097305;28;20620;-74
2023/06/26 03:36:35;;;;;;;4.17;3.33;;;18.20;68.70;;;;;;5098647;28;20709;-73
2023/06/26 03:39:03;;;;;;;3.60;3.30;;;18.30;68.40;;;;;;5097601;28;20715;-73
2023/06/26 03:41:30;;;;;;;3.83;2.90;;;18.30;68.40;;;;;;5090619;28;21220;-73
2023/06/26 03:44:00;;;;;;;3.87;3.17;;;18.30;68.50;;;;;;5098084;28;21274;-73
2023/06/26 03:46:27;;;;;;;4.00;3.50;;;18.30;68.90;;;;;;5095820;28;20655;-73
2023/06/26 03:48:53;;;;;;;4.40;3.50;;;18.30;68.60;;;;;;5094370;28;20672;-73
2023/06/26 03:51:20;;;;;;;3.63;3.30;;;18.30;68.90;;;;;;5097505;28;20652;-74
2023/06/26 03:53:47;;;;;;;4.73;4.23;;;18.20;69.20;;;;;;5091229;28;20616;-73
2023/06/26 03:56:14;;;;;;;7.03;4.00;;;18.30;69.30;;;;;;5092505;28;20667;-73
2023/06/26 03:58:41;;;;;;;3.53;3.20;;;18.30;69.40;;;;;;5095173;28;20624;-74
2023/06/26 04:01:09;;;;;;;5.37;3.80;;;18.30;69.20;;;;;;5094621;28;20653;-74
2023/06/26 04:03:36;;;;;;;5.40;4.90;;;18.40;70.00;;;;;;5096593;28;20616;-73
2023/06/26 04:06:03;;;;;;;4.77;3.40;;;18.40;70.30;;;;;;5098675;28;20773;-73
2023/06/26 04:08:29;;;;;;;3.83;3.50;;;18.40;70.10;;;;;;5093806;28;21260;-73
2023/06/26 04:10:58;;;;;;;4.07;3.67;;;18.40;69.90;;;;;;5101229;28;21095;-73
2023/06/26 04:13:27;;;;;;;4.03;3.30;;;18.50;69.80;;;;;;5101041;28;20624;-74
2023/06/26 04:15:54;;;;;;;3.97;3.33;;;18.60;70.90;;;;;;5095950;28;20659;-74
2023/06/26 04:18:22;;;;;;;5.93;3.60;;;18.60;72.10;;;;;;5094623;28;20631;-73
2023/06/26 04:21:07;;;;;;;5.47;3.57;;;18.60;71.40;;;;;;5095639;28;20658;-74
2023/06/26 04:23:34;;;;;;;3.97;3.40;;;18.80;71.30;;;;;;5099595;28;20620;-74
2023/06/26 04:26:02;;;;;;;4.57;3.60;;;18.80;72.50;;;;;;5100843;28;20652;-73
2023/06/26 04:28:29;;;;;;;4.00;3.60;;;18.80;72.60;;;;;;5101910;28;20712;-74
2023/06/26 04:30:55;;;;;;;5.07;4.30;;;18.90;72.20;;;;;;5100776;28;20644;-73
2023/06/26 04:33:24;;;;;;;4.50;4.10;;;19.00;72.80;;;;;;5098468;28;20667;-74
2023/06/26 04:35:51;;;;;;;3.97;3.60;;;19.00;72.00;;;;;;5101395;28;20648;-74
2023/06/26 04:38:17;;;;;;;3.65;3.35;;;19.10;73.50;;;;;;5094527;28;20558;-74
2023/06/26 04:40:44;;;;;;;4.93;4.53;;;19.30;73.70;;;;;;5099350;27;20226;-73
2023/06/26 04:43:11;;;;;;;5.83;4.37;;;19.30;72.90;;;;;;5099206;28;21157;-73
2023/06/26 04:45:38;;;;;;;5.97;3.93;;;19.60;71.90;;;;;;5101611;28;20654;-72
2023/06/26 04:48:06;;;;;;;6.20;4.70;;;19.70;71.50;;;;;;5094337;28;20652;-72
2023/06/26 04:50:35;;;;;;;4.07;3.77;;;19.80;71.70;;;;;;5100023;28;20643;-72
2023/06/26 04:53:02;;;;;;;5.30;3.93;;;19.90;71.60;;;;;;5101597;28;21009;-72
2023/06/26 04:55:29;;;;;;;6.43;4.20;;;20.00;71.10;;;;;;5095541;28;20706;-72
2023/06/26 04:57:55;;;;;;;4.77;4.00;;;20.00;69.70;;;;;;5096395;28;20631;-72
2023/06/26 05:00:24;;;;;;;5.10;4.37;;;20.00;69.80;;;;;;5097664;28;20627;-72
2023/06/26 05:02:58;;;;;;;3.73;3.43;;;20.10;69.10;;;;;;5098255;28;20724;-73
2023/06/26 05:05:26;;;;;;;4.77;4.03;;;20.10;69.10;;;;;;5094179;28;20668;-73
2023/06/26 05:07:55;;;;;;;4.50;3.93;;;20.20;68.40;;;;;;5092382;28;20669;-74
2023/06/26 05:10:22;;;;;;;5.27;4.17;;;20.30;67.90;;;;;;5100318;28;20989;-73
2023/06/26 05:12:49;;;;;;;5.07;3.93;;;20.40;67.90;;;;;;5093684;28;20718;-74
2023/06/26 05:15:16;;;;;;;4.77;4.13;;;20.50;66.60;;;;;;5100842;28;20642;-75
2023/06/26 05:17:43;;;;;;;4.93;4.47;;;20.50;66.90;;;;;;5097833;28;21237;-73
2023/06/26 05:20:11;;;;;;;5.80;4.37;;;20.70;65.80;;;;;;5097017;28;21263;-73
2023/06/26 05:22:39;;;;;;;4.63;4.23;;;20.70;65.80;;;;;;5093404;28;20635;-73
2023/06/26 05:25:09;;;;;;;4.50;3.93;;;20.80;66.60;;;;;;5100338;28;20622;-74
2023/06/26 05:27:37;;;;;;;5.13;3.87;;;20.90;65.90;;;;;;5098575;27;20659;-73
2023/06/26 05:30:05;;;;;;;5.47;4.50;;;20.90;65.60;;;;;;5098744;28;20668;-73
2023/06/26 05:32:35;;;;;;;5.03;4.50;;;21.00;66.00;;;;;;5100186;28;20722;-74
2023/06/26 05:35:03;;;;;;;6.27;3.80;;;21.00;65.40;;;;;;5092546;28;20625;-73
2023/06/26 05:37:31;;;;;;;5.37;4.03;;;21.00;65.00;;;;;;5097601;28;20626;-74
2023/06/26 05:39:59;;;;;;;5.17;3.63;;;21.10;66.70;;;;;;5096577;28;20624;-73
2023/06/26 05:42:27;;;;;;;4.13;3.77;;;21.20;65.40;;;;;;5096535;28;20652;-73
2023/06/26 05:44:54;;;;;;;5.93;4.27;;;21.30;65.10;;;;;;5097067;28;20720;-73
2023/06/26 05:47:21;;;;;;;3.37;3.10;;;21.40;64.20;;;;;;5098977;28;20652;-73
2023/06/26 05:49:48;;;;;;;6.13;3.90;;;21.50;63.90;;;;;;5098991;28;20676;-73
2023/06/26 05:52:16;;;;;;;5.20;4.00;;;21.60;64.60;;;;;;5099329;28;20987;-73
2023/06/26 05:54:43;;;;;;;3.93;3.53;;;21.70;64.00;;;;;;5097652;28;20720;-72
2023/06/26 05:57:11;;;;;;;3.67;3.37;;;21.70;64.50;;;;;;5090975;28;20653;-72
2023/06/26 05:59:41;;;;;;;4.27;3.90;;;21.80;65.20;;;;;;5096276;28;20621;-72
2023/06/26 06:02:07;;;;;;;5.20;4.70;;;21.90;63.70;;;;;;5096330;28;21177;-72
2023/06/26 06:04:34;;;;;;;4.10;3.73;;;21.90;63.70;;;;;;5102323;28;20628;-72
2023/06/26 06:07:01;;;;;;;3.80;3.40;;;22.10;62.90;;;;;;5093585;28;20651;-72
2023/06/26 06:09:28;;;;;;;4.33;3.17;;;22.30;63.40;;;;;;5094155;28;20657;-72
2023/06/26 06:11:55;;;;;;;4.03;3.63;;;22.50;62.80;;;;;;5087858;28;20659;-72
2023/06/26 06:14:22;;;;;;;4.53;4.13;;;22.60;62.20;;;;;;5090924;28;20645;-72
2023/06/26 06:16:50;;;;;;;4.53;4.10;;;22.70;61.60;;;;;;5097882;28;20657;-72
2023/06/26 06:19:16;;;;;;;4.47;4.07;;;22.80;61.40;;;;;;5099441;28;20637;-72
2023/06/26 06:21:43;;;;;;;5.40;4.50;;;23.00;60.40;;;;;;5088150;28;20648;-72
2023/06/26 06:24:10;;;;;;;3.93;3.47;;;23.10;60.20;;;;;;5096479;28;21220;-72
2023/06/26 06:26:37;;;;;;;4.97;4.40;;;23.20;59.90;;;;;;5094244;28;20701;-72
2023/06/26 06:29:04;;;;;;;3.73;3.43;;;23.20;59.90;;;;;;5096547;28;21281;-72
2023/06/26 06:31:30;;;;;;;5.97;3.50;;;23.30;60.00;;;;;;5095962;28;20752;-72
2023/06/26 06:33:59;;;;;;;5.33;4.23;;;23.40;59.60;;;;;;5096171;28;20620;-72
2023/06/26 06:36:25;;;;;;;3.57;3.17;;;23.60;59.50;;;;;;5090040;28;20666;-72
2023/06/26 06:38:52;;;;;;;4.83;4.33;;;23.70;59.30;;;;;;5095871;28;20682;-72
2023/06/26 06:41:19;;;;;;;4.17;3.77;;;23.80;59.10;;;;;;5096764;28;20648;-72
2023/06/26 06:43:46;;;;;;;4.67;3.70;;;23.80;59.70;;;;;;5095201;28;20667;-72
2023/06/26 06:46:13;;;;;;;3.87;3.50;;;23.90;59.30;;;;;;5097921;28;20663;-72
2023/06/26 06:48:39;;;;;;;7.40;3.73;;;24.00;58.70;;;;;;5091322;28;20659;-72
2023/06/26 06:51:08;;;;;;;3.27;3.07;;;24.10;58.70;;;;;;5092082;28;21002;-72
2023/06/26 06:53:34;;;;;;;3.87;3.50;;;24.20;59.20;;;;;;5096406;28;20623;-72
2023/06/26 06:56:01;;;;;;;5.83;4.67;;;24.20;59.10;;;;;;5101113;28;21001;-72
2023/06/26 06:58:28;;;;;;;4.70;3.53;;;24.40;58.70;;;;;;5097776;28;20638;-72
2023/06/26 07:00:55;;;;;;;3.60;3.30;;;24.40;57.50;;;;;;5092670;28;21007;-72
2023/06/26 07:03:22;;;;;;;3.30;3.03;;;24.60;57.70;;;;;;5094275;28;20619;-72
2023/06/26 07:05:49;;;;;;;4.97;3.77;;;24.70;57.80;;;;;;5082828;28;20654;-72
2023/06/26 07:08:17;;;;;;;3.90;3.50;;;24.80;56.80;;;;;;5095008;28;20995;-72
2023/06/26 07:10:44;;;;;;;3.97;3.53;;;24.90;57.20;;;;;;5101941;28;20753;-73
2023/06/26 07:13:11;;;;;;;3.60;3.00;;;25.00;57.80;;;;;;5090509;28;20629;-72
2023/06/26 07:15:37;;;;;;;4.00;3.60;;;25.20;56.40;;;;;;5095668;28;21078;-72
2023/06/26 07:18:04;;;;;;;3.70;3.40;;;25.20;56.30;;;;;;5096654;28;20734;-72
2023/06/26 07:20:31;;;;;;;4.07;3.67;;;25.40;56.30;;;;;;5094064;28;20658;-72
2023/06/26 07:22:58;;;;;;;3.50;3.20;;;25.50;55.90;;;;;;5097531;28;20637;-73
2023/06/26 07:25:26;;;;;;;3.60;3.30;;;25.60;55.60;;;;;;5098576;28;20654;-72
2023/06/26 07:27:53;;;;;;;4.90;3.73;;;25.60;55.50;;;;;;5097506;28;20669;-72
2023/06/26 07:30:19;;;;;;;4.70;4.00;;;25.60;55.70;;;;;;5090113;28;20770;-72
2023/06/26 07:32:46;;;;;;;4.30;3.90;;;25.80;55.90;;;;;;5096111;28;21230;-73
2023/06/26 07:35:13;;;;;;;4.10;3.70;;;25.90;55.30;;;;;;5097508;28;20623;-72
2023/06/26 07:37:40;;;;;;;4.70;3.87;;;26.00;55.80;;;;;;5094814;28;20740;-72
2023/06/26 07:40:08;;;;;;;4.00;3.60;;;26.10;55.70;;;;;;5091527;28;20628;-73
2023/06/26 07:42:37;;;;;;;5.43;4.00;;;26.20;56.10;;;;;;5094454;28;20723;-72
2023/06/26 07:45:11;;;;;;;7.33;3.57;;;26.40;56.40;;;;;;5095010;28;20627;-72
2023/06/26 07:47:39;;;;;;;4.13;3.83;;;26.50;56.40;;;;;;5092202;28;20644;-72
2023/06/26 07:50:06;;;;;;;3.73;3.43;;;26.70;55.50;;;;;;5086870;28;20672;-72
2023/06/26 07:52:33;;;;;;;3.77;3.30;;;26.80;55.80;;;;;;5090848;28;20651;-72
2023/06/26 07:55:00;;;;;;;4.00;3.60;;;26.90;54.60;;;;;;5093751;28;20633;-72
2023/06/26 07:57:26;;;;;;;3.97;3.60;;;27.00;53.70;;;;;;5096927;28;20662;-72
2023/06/26 07:59:55;;;;;;;4.10;3.70;;;27.10;54.40;;;;;;5096589;28;20633;-72
2023/06/26 08:02:22;;;;;;;4.50;3.63;;;27.20;53.40;;;;;;5095426;28;20687;-72
2023/06/26 08:04:49;;;;;;;3.63;3.33;;;27.30;53.50;;;;;;5100470;28;20642;-72
2023/06/26 08:07:16;;;;;;;3.20;2.90;;;27.30;54.00;;;;;;5102098;28;20668;-72
2023/06/26 08:09:42;;;;;;;3.37;3.07;;;27.30;53.10;;;;;;5099306;28;20657;-72
2023/06/26 08:12:09;;;;;;;3.77;3.47;;;27.50;52.70;;;;;;5093774;28;20657;-72
2023/06/26 08:14:36;;;;;;;3.40;3.10;;;27.70;52.50;;;;;;5098588;28;20636;-72
2023/06/26 08:17:05;;;;;;;3.80;3.50;;;27.80;52.10;;;;;;5094038;28;20648;-72
2023/06/26 08:19:32;;;;;;;3.73;3.43;;;27.90;50.80;;;;;;5098660;28;20730;-73
2023/06/26 08:21:58;;;;;;;4.20;3.70;;;28.00;51.40;;;;;;5096171;28;20753;-74
2023/06/26 08:24:25;;;;;;;3.00;2.80;;;28.10;51.90;;;;;;5098516;28;20202;-72
2023/06/26 08:26:52;;;;;;;2.40;2.20;;;28.20;51.30;;;;;;5099435;28;20658;-73
2023/06/26 08:29:19;;;;;;;4.20;3.80;;;28.20;51.20;;;;;;5090528;27;20699;-72
2023/06/26 08:31:46;;;;;;;3.50;3.20;;;28.30;50.70;;;;;;5098274;28;20848;-73
2023/06/26 08:34:14;;;;;;;4.03;3.73;;;28.40;50.00;;;;;;5098019;28;20626;-73
2023/06/26 08:36:41;;;;;;;4.77;4.37;;;28.30;50.40;;;;;;5099559;28;20754;-72
2023/06/26 08:39:08;;;;;;;3.70;3.40;;;28.50;50.50;;;;;;5099987;28;20634;-73
2023/06/26 08:41:35;;;;;;;3.53;3.23;;;28.40;50.40;;;;;;5097244;28;21235;-73
2023/06/26 08:44:03;;;;;;;4.30;3.87;;;28.50;50.50;;;;;;5102730;28;20727;-74
2023/06/26 08:46:29;;;;;;;3.83;3.53;;;28.60;50.60;;;;;;5097102;28;20667;-73
2023/06/26 08:48:59;;;;;;;3.83;3.40;;;28.80;50.50;;;;;;5096033;28;20625;-73
2023/06/26 08:51:29;;;;;;;3.43;3.13;;;28.90;49.50;;;;;;5100054;28;20746;-73
2023/06/26 08:53:58;;;;;;;4.00;3.70;;;29.10;50.10;;;;;;5088313;28;20633;-73
2023/06/26 08:56:28;;;;;;;3.90;3.60;;;29.10;49.60;;;;;;5094753;28;20663;-73
2023/06/26 08:58:55;;;;;;;3.90;3.60;;;29.30;49.70;;;;;;5101150;28;20620;-73
2023/06/26 09:01:24;;;;;;;4.00;3.70;;;29.30;48.30;;;;;;5095628;28;20656;-73
2023/06/26 09:03:51;;;;;;;4.37;3.87;;;29.30;49.10;;;;;;5097484;28;20634;-73
2023/06/26 09:06:19;;;;;;;3.93;3.63;;;29.30;48.40;;;;;;5098682;28;20686;-73
2023/06/26 09:08:47;;;;;;;4.10;3.73;;;29.40;48.50;;;;;;5097131;28;20631;-73
2023/06/26 09:11:14;;;;;;;4.13;3.73;;;29.60;48.90;;;;;;5096848;28;20679;-73
2023/06/26 09:13:43;;;;;;;3.60;3.30;;;29.70;48.40;;;;;;5096041;28;20636;-73
2023/06/26 09:16:10;;;;;;;4.27;3.87;;;29.80;48.20;;;;;;5100028;28;20647;-73
2023/06/26 09:18:37;;;;;;;4.03;3.73;;;29.90;47.40;;;;;;5100735;28;20755;-73
2023/06/26 09:21:09;;;;;;;3.53;3.23;;;29.50;47.90;;;;;;5094614;28;20636;-73
2023/06/26 09:23:36;;;;;;;4.77;4.33;;;29.30;47.70;;;;;;5097251;28;20624;-73
2023/06/26 09:26:06;;;;;;;3.97;3.10;;;29.40;48.20;;;;;;5097243;27;20647;-73
2023/06/26 09:28:33;;;;;;;4.20;3.27;;;29.40;47.50;;;;;;5097462;28;21227;-73
2023/06/26 09:31:04;;;;;;;4.00;3.67;;;29.60;47.00;;;;;;5097512;28;20679;-73
2023/06/26 09:33:35;;;;;;;3.20;2.90;;;29.50;45.70;;;;;;5091553;28;20622;-73
2023/06/26 09:36:02;;;;;;;3.60;3.30;;;29.80;46.80;;;;;;5094607;28;20698;-73
2023/06/26 09:38:29;;;;;;;3.93;3.50;;;30.10;47.00;;;;;;5095143;28;20640;-73
2023/06/26 09:40:56;;;;;;;4.10;3.70;;;30.10;46.70;;;;;;5094539;28;20645;-73
2023/06/26 09:43:24;;;;;;;3.87;3.47;;;30.10;46.90;;;;;;5083975;28;20616;-73
2023/06/26 09:45:51;;;;;;;3.20;3.00;;;30.10;46.30;;;;;;5092606;28;20768;-73
2023/06/26 09:48:18;;;;;;;4.00;3.70;;;30.30;46.40;;;;;;5098747;28;20648;-73
2023/06/26 09:50:45;;;;;;;3.60;3.30;;;30.50;46.80;;;;;;5098637;28;21118;-73
2023/06/26 09:53:14;;;;;;;4.07;3.77;;;30.40;45.70;;;;;;5093064;28;20633;-73
2023/06/26 09:55:43;;;;;;;3.23;2.93;;;30.30;45.30;;;;;;5097012;28;20643;-73
2023/06/26 09:58:14;;;;;;;3.57;3.27;;;30.20;46.20;;;;;;5096935;28;20637;-73
2023/06/26 10:00:43;;;;;;;3.90;3.50;;;30.20;46.30;;;;;;5095497;28;20649;-73
2023/06/26 10:03:10;;;;;;;3.60;3.30;;;30.10;45.80;;;;;;5089302;28;20622;-73
2023/06/26 10:05:38;;;;;;;3.97;3.63;;;30.20;47.50;;;;;;5103554;28;20662;-73
2023/06/26 10:08:06;;;;;;;3.80;3.50;;;30.10;45.80;;;;;;5095539;28;20609;-73
2023/06/26 10:10:35;;;;;;;4.27;3.87;;;29.90;46.20;;;;;;5096952;28;20694;-73
2023/06/26 10:13:12;;;;;;;3.97;3.67;;;29.90;46.80;;;;;;5102342;28;20626;-73
2023/06/26 10:15:41;;;;;;;4.73;4.30;;;30.00;47.10;;;;;;5097865;28;21174;-73
2023/06/26 10:18:10;;;;;;;3.93;3.63;;;30.30;47.50;;;;;;5096734;28;20623;-72
2023/06/26 10:20:37;;;;;;;5.53;5.00;;;30.00;47.20;;;;;;5094996;28;20645;-72
2023/06/26 10:23:08;;;;;;;4.10;3.80;;;29.90;46.80;;;;;;5093489;27;20624;-73
2023/06/26 10:25:41;;;;;;;4.20;3.80;;;29.70;47.20;;;;;;5089074;28;20761;-73
2023/06/26 10:28:10;;;;;;;3.87;3.33;;;29.90;48.00;;;;;;5088028;28;20706;-72
2023/06/26 10:30:37;;;;;;;3.60;3.30;;;30.20;47.90;;;;;;5094312;28;20660;-72
2023/06/26 10:33:05;;;;;;;4.27;3.97;;;30.10;48.20;;;;;;5093222;28;20639;-72
2023/06/26 10:35:33;;;;;;;3.57;3.23;;;29.70;48.00;;;;;;5093477;28;21230;-72
2023/06/26 10:38:04;;;;;;;4.00;3.70;;;29.20;48.40;;;;;;5094335;28;20627;-72
2023/06/26 10:40:42;;;;;;;3.77;3.43;;;29.10;49.60;;;;;;5097520;28;21266;-72
2023/06/26 10:43:11;;;;;;;4.67;4.27;;;28.80;50.20;;;;;;5098239;28;20860;-72
2023/06/26 10:45:45;;;;;;;5.20;4.50;;;28.50;50.80;;;;;;5093238;28;20839;-73
2023/06/26 10:48:15;;;;;;;3.83;3.47;;;28.50;51.30;;;;;;5097576;28;21072;-73
2023/06/26 10:50:43;;;;;;;3.83;3.53;;;28.70;51.60;;;;;;5098223;28;20780;-73
2023/06/26 10:53:18;;;;;;;4.40;4.00;;;29.10;51.20;;;;;;5095751;28;20871;-72
2023/06/26 10:55:53;;;;;;;4.50;4.10;;;29.30;50.80;;;;;;5094947;28;20644;-72
2023/06/26 10:58:41;;;;;;;6.37;4.50;;;30.00;52.00;;;;;;5088813;28;21210;-73
2023/06/26 11:01:24;;;;;;;4.23;3.83;;;30.20;50.50;;;;;;5097017;28;20654;-73
2023/06/26 11:04:04;;;;;;;4.13;3.73;;;30.60;50.70;;;;;;5089352;28;21017;-72
2023/06/26 11:06:34;;;;;;;5.33;4.63;;;30.40;49.50;;;;;;5095030;28;21192;-73
2023/06/26 11:09:07;;;;;;;4.03;3.73;;;30.10;49.70;;;;;;5094894;28;20643;-72
2023/06/26 11:11:58;;;;;;;5.10;4.70;;;30.10;49.80;;;;;;5087538;28;20688;-73
2023/06/26 11:14:26;;;;;;;5.60;4.43;;;30.60;51.00;;;;;;5091776;28;20655;-73
2023/06/26 11:16:55;;;;;;;5.53;4.00;;;30.80;49.70;;;;;;5104165;28;20744;-72
2023/06/26 11:19:22;;;;;;;5.83;5.17;;;31.20;49.00;;;;;;5095232;28;20629;-72
2023/06/26 11:21:51;;;;;;;4.43;4.03;;;31.50;49.00;;;;;;5094653;28;20655;-73
2023/06/26 11:24:19;;;;;;;5.90;4.60;;;31.90;49.30;;;;;;5098183;28;20628;-73
2023/06/26 11:26:46;;;;;;;4.47;4.00;;;31.90;48.90;;;;;;5102048;28;21332;-72
2023/06/26 11:29:13;;;;;;;4.90;4.40;;;32.30;48.10;;;;;;5094136;28;20620;-73
2023/06/26 11:31:42;;;;;;;5.03;4.63;;;31.90;47.40;;;;;;5101570;28;20681;-73
2023/06/26 11:34:11;;;;;;;4.73;4.23;;;31.90;47.00;;;;;;5100134;28;21910;-73
2023/06/26 11:36:41;;;;;;;5.40;4.90;;;32.20;48.00;;;;;;5092726;28;20681;-73
2023/06/26 11:39:10;;;;;;;4.17;3.87;;;32.70;46.30;;;;;;5100042;28;20627;-73
2023/06/26 11:41:38;;;;;;;4.50;4.10;;;33.00;46.30;;;;;;5096065;28;20657;-73
2023/06/26 11:44:06;;;;;;;4.23;3.93;;;33.40;46.20;;;;;;5102180;28;20643;-73
2023/06/26 11:46:35;;;;;;;4.40;4.10;;;33.40;46.80;;;;;;5095306;28;20651;-73
2023/06/26 11:49:04;;;;;;;4.53;4.13;;;33.10;47.30;;;;;;5101803;28;20620;-72
2023/06/26 11:51:30;;;;;;;5.50;5.00;;;33.40;48.00;;;;;;5090053;28;20675;-72
2023/06/26 11:53:58;;;;;;;4.73;4.30;;;33.80;46.30;;;;;;5099918;28;20702;-73
2023/06/26 11:56:26;;;;;;;4.83;4.43;;;34.10;47.30;;;;;;5100821;28;21278;-73
2023/06/26 11:59:00;;;;;;;4.33;3.90;;;34.70;45.90;;;;;;5092408;28;20693;-72
2023/06/26 12:01:31;;;;;;;4.80;4.40;;;34.80;46.20;;;;;;5097852;28;20647;-73
2023/06/26 12:04:01;;;;;;;5.07;4.67;;;35.10;45.50;;;;;;5098092;28;20719;-73
2023/06/26 12:06:28;;;;;;;5.40;4.90;;;35.50;45.40;;;;;;5098856;28;20647;-73
2023/06/26 12:08:55;;;;;;;4.50;4.20;;;35.50;45.00;;;;;;5090369;28;20642;-72
2023/06/26 12:11:24;;;;;;;4.33;3.93;;;35.00;45.00;;;;;;5099221;28;20670;-71
2023/06/26 12:13:52;;;;;;;5.30;4.83;;;34.90;46.10;;;;;;5102000;28;21086;-72
2023/06/26 12:16:20;;;;;;;4.80;4.40;;;35.40;45.30;;;;;;5095015;28;20738;-73
2023/06/26 12:18:47;;;;;;;4.70;4.30;;;36.20;43.30;;;;;;5099974;28;20651;-72
2023/06/26 12:21:29;;;;;;;4.30;4.00;;;35.90;44.10;;;;;;5097144;28;21096;-73
2023/06/26 12:23:59;;;;;;;4.93;4.50;;;36.70;43.90;;;;;;5098584;28;21207;-73
2023/06/26 12:26:27;;;;;;;4.00;3.70;;;37.30;42.70;;;;;;5093604;28;21068;-72
2023/06/26 12:29:02;;;;;;;4.20;3.80;;;36.80;42.60;;;;;;5097675;28;20984;-72
2023/06/26 12:31:29;;;;;;;4.77;4.33;;;36.40;43.40;;;;;;5095742;28;20681;-72
2023/06/26 12:33:56;;;;;;;3.77;3.53;;;36.30;44.50;;;;;;5100823;28;20718;-73
2023/06/26 12:36:23;;;;;;;4.17;3.87;;;37.20;43.40;;;;;;5098024;28;20710;-73
2023/06/26 12:38:50;;;;;;;4.57;4.17;;;36.70;42.80;;;;;;5099598;28;20673;-73
2023/06/26 12:41:17;;;;;;;3.90;3.60;;;35.80;44.60;;;;;;5092685;28;20670;-73
2023/06/26 12:43:44;;;;;;;4.20;3.63;;;35.90;44.80;;;;;;5100811;28;20995;-73
2023/06/26 12:46:13;;;;;;;4.60;4.20;;;36.80;44.70;;;;;;5092277;28;20655;-73
2023/06/26 12:48:43;;;;;;;4.60;4.20;;;36.70;44.10;;;;;;5102053;28;20637;-73
2023/06/26 12:51:13;;;;;;;7.60;3.73;;;37.60;43.20;;;;;;5092662;28;20240;-73
2023/06/26 12:53:40;;;;;;;5.57;4.77;;;37.80;42.20;;;;;;5101642;28;20197;-73